createdAt,value
2023-04-20T00:04:02.516Z,8.42
2023-04-20T00:09:04.732Z,8.35
2023-04-20T00:14:06.445Z,8.30
2023-04-20T00:19:09.117Z,8.23
2023-04-20T00:24:10.843Z,8.18
2023-04-20T00:29:12.493Z,8.13
2023-04-20T00:34:13.958Z,8.06
2023-04-20T00:39:16.482Z,8.01
2023-04-20T00:44:18.274Z,7.95
2023-04-20T00:49:19.852Z,7.91
2023-04-20T00:54:21.981Z,7.91
2023-04-20T00:59:24.449Z,7.94
2023-04-20T01:04:26.533Z,7.97
2023-04-20T01:09:29.058Z,7.99
2023-04-20T01:14:30.556Z,7.99
2023-04-20T01:19:33.191Z,7.98
2023-04-20T01:24:34.753Z,7.99
2023-04-20T01:29:36.330Z,8.01
2023-04-20T01:34:38.700Z,8.02
2023-04-20T01:39:41.131Z,8.01
2023-04-20T01:44:42.701Z,8.01
2023-04-20T01:49:44.271Z,7.96
2023-04-20T01:54:45.816Z,7.90
2023-04-20T01:59:47.328Z,7.91
2023-04-20T02:04:48.904Z,7.87
2023-04-20T02:09:50.461Z,7.86
2023-04-20T02:14:51.999Z,7.84
2023-04-20T02:19:53.475Z,7.81
2023-04-20T02:24:55.040Z,7.75
2023-04-20T02:29:56.609Z,7.71
2023-04-20T02:34:58.078Z,7.69
2023-04-20T02:39:59.644Z,7.70
2023-04-20T02:45:01.165Z,7.73
2023-04-20T02:50:03.066Z,7.77
2023-04-20T02:55:05.997Z,7.78
2023-04-20T03:00:13.609Z,7.84
2023-04-20T03:05:15.222Z,7.88
2023-04-20T03:10:16.785Z,7.92
2023-04-20T03:15:18.794Z,7.96
2023-04-20T03:20:20.671Z,7.99
2023-04-20T03:25:22.850Z,8.01
2023-04-20T03:30:31.160Z,8.02
2023-04-20T03:35:32.663Z,8.04
2023-04-20T03:40:34.936Z,8.07
2023-04-20T03:45:36.666Z,8.08
2023-04-20T03:50:38.177Z,8.08
2023-04-20T03:55:39.649Z,8.07
2023-04-20T04:00:41.412Z,8.08
2023-04-20T04:05:42.973Z,8.11
2023-04-20T04:10:44.441Z,8.12
2023-04-20T04:15:46.213Z,8.16
2023-04-20T04:20:48.033Z,8.22
2023-04-20T04:25:49.609Z,8.27
2023-04-20T04:30:52.478Z,8.32
2023-04-20T04:35:55.371Z,8.40
2023-04-20T04:40:57.532Z,8.52
2023-04-20T04:45:59.451Z,8.63
2023-04-20T04:51:00.967Z,8.78
2023-04-20T04:56:03.768Z,8.96
2023-04-20T05:01:05.651Z,9.09
2023-04-20T05:06:07.984Z,9.16
2023-04-20T05:11:09.479Z,9.35
2023-04-20T05:16:11.167Z,9.51
2023-04-20T05:21:12.755Z,9.59
2023-04-20T05:26:14.225Z,9.59
2023-04-20T05:31:15.924Z,9.68
2023-04-20T05:36:17.635Z,9.74
2023-04-20T05:41:19.628Z,9.82
2023-04-20T05:46:21.918Z,10.01
2023-04-20T05:51:23.547Z,10.11
2023-04-20T05:56:25.080Z,10.15
2023-04-20T06:01:26.652Z,10.20
2023-04-20T06:06:28.275Z,10.25
2023-04-20T06:11:29.829Z,10.42
2023-04-20T06:16:31.457Z,10.60
2023-04-20T06:21:34.316Z,10.84
2023-04-20T06:26:36.029Z,11.12
2023-04-20T06:31:37.644Z,11.38
2023-04-20T06:36:43.523Z,11.60
2023-04-20T06:41:45.021Z,11.86
2023-04-20T06:46:46.606Z,12.19
2023-04-20T06:51:48.784Z,12.44
2023-04-20T06:56:50.585Z,12.66
2023-04-20T07:01:52.159Z,12.87
2023-04-20T07:06:54.325Z,12.97
2023-04-20T07:11:56.509Z,13.12
2023-04-20T07:16:58.042Z,13.28
2023-04-20T07:21:59.762Z,13.41
2023-04-20T07:27:01.589Z,13.50
2023-04-20T07:32:03.163Z,13.58
2023-04-20T07:37:04.725Z,13.67
2023-04-20T07:42:06.501Z,13.84
2023-04-20T07:47:08.029Z,14.06
2023-04-20T07:52:16.325Z,14.28
2023-04-20T07:57:18.277Z,14.49
2023-04-20T08:02:20.013Z,14.67
2023-04-20T08:07:21.610Z,14.71
2023-04-20T08:12:23.631Z,14.67
2023-04-20T08:17:25.148Z,14.62
2023-04-20T08:22:30.489Z,14.62
2023-04-20T08:27:32.378Z,14.69
2023-04-20T08:32:33.921Z,14.79
2023-04-20T08:37:35.829Z,14.90
2023-04-20T08:42:37.388Z,15.10
2023-04-20T08:47:40.720Z,15.28
2023-04-20T08:52:42.375Z,15.44
2023-04-20T08:57:44.220Z,15.56
2023-04-20T09:02:54.496Z,15.57
2023-04-20T09:07:58.840Z,15.58
2023-04-20T09:13:00.412Z,15.73
2023-04-20T09:18:14.061Z,15.80
2023-04-20T09:23:17.806Z,15.90
2023-04-20T09:28:20.972Z,16.14
2023-04-20T09:33:28.399Z,16.38
2023-04-20T09:38:31.211Z,16.60
2023-04-20T09:43:33.481Z,16.73
2023-04-20T09:48:35.567Z,16.89
2023-04-20T09:53:37.913Z,16.99
2023-04-20T09:58:40.774Z,17.10
2023-04-20T10:03:43.132Z,17.14
2023-04-20T10:08:44.836Z,17.23
2023-04-20T10:13:46.364Z,17.39
2023-04-20T10:19:05.251Z,17.50
2023-04-20T10:24:08.337Z,17.45
2023-04-20T10:29:09.856Z,17.45
2023-04-20T10:34:11.811Z,17.45
2023-04-20T10:39:19.417Z,17.39
2023-04-20T10:44:21.997Z,17.26
2023-04-20T10:49:28.919Z,17.23
2023-04-20T10:54:38.050Z,17.43
2023-04-20T10:59:41.541Z,17.74
2023-04-20T11:04:43.131Z,18.00
2023-04-20T11:09:44.710Z,18.17
2023-04-20T11:14:54.683Z,18.43
2023-04-20T11:20:06.251Z,18.66
2023-04-20T11:25:12.591Z,18.82
2023-04-20T11:30:14.463Z,18.80
2023-04-20T11:35:16.178Z,18.64
2023-04-20T11:40:17.987Z,18.51
2023-04-20T11:45:19.532Z,18.38
2023-04-20T11:50:21.955Z,18.37
2023-04-20T11:55:23.647Z,18.49
2023-04-20T12:00:27.053Z,18.78
2023-04-20T12:05:29.743Z,19.04
2023-04-20T12:10:31.354Z,19.20
2023-04-20T12:15:32.874Z,19.06
2023-04-20T12:20:34.541Z,18.76
2023-04-20T12:25:36.212Z,18.54
2023-04-20T12:30:39.224Z,18.44
2023-04-20T12:35:41.060Z,18.56
2023-04-20T12:40:42.663Z,18.80
2023-04-20T12:45:44.226Z,19.11
2023-04-20T12:50:45.804Z,19.42
2023-04-20T12:55:48.276Z,19.55
2023-04-20T13:00:51.252Z,19.72
2023-04-20T13:05:52.845Z,19.77
2023-04-20T13:10:54.398Z,19.76
2023-04-20T13:15:56.232Z,19.62
2023-04-20T13:20:57.845Z,19.22
2023-04-20T13:26:01.666Z,19.01
2023-04-20T13:31:03.689Z,19.07
2023-04-20T13:36:05.604Z,19.12
2023-04-20T13:41:07.103Z,19.05
2023-04-20T13:46:08.687Z,18.89
2023-04-20T13:51:10.302Z,18.79
2023-04-20T13:56:11.854Z,18.69
2023-04-20T14:01:17.538Z,18.73
2023-04-20T14:06:19.878Z,18.79
2023-04-20T14:11:21.412Z,18.89
2023-04-20T14:16:23.165Z,18.85
2023-04-20T14:21:24.768Z,18.80
2023-04-20T14:26:27.539Z,18.79
2023-04-20T14:31:29.100Z,18.88
2023-04-20T14:36:30.983Z,19.09
2023-04-20T14:41:34.201Z,19.11
2023-04-20T14:46:36.057Z,18.91
2023-04-20T14:51:37.659Z,18.69
2023-04-20T14:56:39.222Z,18.51
2023-04-20T15:01:48.444Z,18.43
2023-04-20T15:07:00.631Z,18.55
2023-04-20T15:12:02.592Z,18.89
2023-04-20T15:17:04.109Z,18.75
2023-04-20T15:22:05.640Z,18.57
2023-04-20T15:27:07.746Z,18.36
2023-04-20T15:32:09.356Z,18.22
2023-04-20T15:37:11.008Z,18.13
2023-04-20T15:42:12.729Z,18.13
2023-04-20T15:47:15.552Z,18.27
2023-04-20T15:52:17.056Z,18.63
2023-04-20T15:57:18.569Z,18.84
2023-04-20T16:02:20.333Z,18.83
2023-04-20T16:07:21.978Z,18.48
2023-04-20T16:12:23.548Z,18.22
2023-04-20T16:17:25.107Z,18.17
2023-04-20T16:22:26.832Z,18.21
2023-04-20T16:27:28.331Z,18.25
2023-04-20T16:32:29.888Z,18.28
2023-04-20T16:37:33.645Z,18.16
2023-04-20T16:42:35.676Z,18.03
2023-04-20T16:47:37.252Z,17.95
2023-04-20T16:52:38.818Z,17.93
2023-04-20T16:57:42.126Z,17.85
2023-04-20T17:02:43.763Z,17.76
2023-04-20T17:07:46.147Z,17.68
2023-04-20T17:12:47.622Z,17.49
2023-04-20T17:17:49.341Z,17.30
2023-04-20T17:22:50.929Z,17.07
2023-04-20T17:27:52.469Z,16.89
2023-04-20T17:32:54.433Z,16.71
2023-04-20T17:37:55.989Z,16.50
2023-04-20T17:42:57.530Z,16.31
2023-04-20T17:47:59.088Z,16.13
2023-04-20T17:53:06.643Z,15.96
2023-04-20T17:58:08.632Z,15.81
2023-04-20T18:03:11.522Z,15.68
2023-04-20T18:08:14.162Z,15.55
2023-04-20T18:13:15.893Z,15.44
2023-04-20T18:18:19.702Z,15.36
2023-04-20T18:23:21.218Z,15.26
2023-04-20T18:28:23.215Z,15.17
2023-04-20T18:33:24.713Z,15.06
2023-04-20T18:38:26.758Z,14.94
2023-04-20T18:43:28.305Z,14.82
2023-04-20T18:48:29.854Z,14.70
2023-04-20T18:53:33.320Z,14.57
2023-04-20T18:58:34.853Z,14.45
2023-04-20T19:03:36.572Z,14.33
2023-04-20T19:08:38.259Z,14.23
2023-04-20T19:13:44.492Z,14.11
2023-04-20T19:18:48.438Z,13.99
2023-04-20T19:23:50.010Z,13.90
2023-04-20T19:28:51.740Z,13.77
2023-04-20T19:33:54.690Z,13.64
2023-04-20T19:38:57.898Z,13.51
2023-04-20T19:44:00.770Z,13.37
2023-04-20T19:49:02.280Z,13.25
2023-04-20T19:54:04.883Z,13.13
2023-04-20T19:59:06.472Z,13.01
2023-04-20T20:04:08.324Z,12.89
2023-04-20T20:09:10.069Z,12.78
2023-04-20T20:14:11.741Z,12.70
2023-04-20T20:19:13.999Z,12.60
2023-04-20T20:24:16.183Z,12.54
2023-04-20T20:29:18.004Z,12.48
2023-04-20T20:34:19.848Z,12.35
2023-04-20T20:39:21.524Z,12.18
2023-04-20T20:44:23.254Z,12.04
2023-04-20T20:49:24.733Z,11.93
2023-04-20T20:54:26.250Z,11.82
2023-04-20T20:59:27.748Z,11.64
2023-04-20T21:04:30.576Z,11.52
2023-04-20T21:09:33.076Z,11.40
2023-04-20T21:14:34.561Z,11.27
2023-04-20T21:19:36.285Z,11.15
2023-04-20T21:24:37.771Z,11.04
2023-04-20T21:29:39.296Z,10.94
2023-04-20T21:34:40.774Z,10.84
2023-04-20T21:39:42.780Z,10.71
2023-04-20T21:44:44.299Z,10.66
2023-04-20T21:49:45.775Z,10.57
2023-04-20T21:54:47.278Z,10.49
2023-04-20T21:59:48.813Z,10.43
2023-04-20T22:04:51.051Z,10.37
2023-04-20T22:09:52.988Z,10.35
2023-04-20T22:14:54.558Z,10.31
2023-04-20T22:19:56.022Z,10.28
2023-04-20T22:24:57.567Z,10.21
2023-04-20T22:29:59.192Z,10.13
2023-04-20T22:35:01.150Z,10.06
2023-04-20T22:40:05.822Z,9.97
2023-04-20T22:45:10.893Z,9.90
2023-04-20T22:50:13.328Z,9.84
2023-04-20T22:55:15.105Z,9.77
2023-04-20T23:00:18.699Z,9.70
2023-04-20T23:05:20.799Z,9.66
2023-04-20T23:10:22.444Z,9.59
2023-04-20T23:15:24.166Z,9.50
2023-04-20T23:20:25.910Z,9.41
2023-04-20T23:25:27.425Z,9.35
2023-04-20T23:30:35.844Z,9.30
2023-04-20T23:35:38.744Z,9.25
2023-04-20T23:40:40.471Z,9.21
2023-04-20T23:45:42.054Z,9.14
2023-04-20T23:50:43.665Z,9.06
2023-04-20T23:55:51.692Z,9.00
